createdAt,value
2023-06-10T00:01:48.678Z,10.30
2023-06-10T00:04:17.834Z,10.43
2023-06-10T00:06:45.647Z,10.70
2023-06-10T00:09:13.300Z,10.45
2023-06-10T00:11:40.579Z,10.45
2023-06-10T00:14:08.537Z,10.30
2023-06-10T00:16:37.181Z,10.75
2023-06-10T00:19:04.970Z,10.85
2023-06-10T00:21:38.607Z,10.77
2023-06-10T00:26:34.175Z,10.20
2023-06-10T00:29:01.521Z,11.40
2023-06-10T00:31:28.844Z,11.55
2023-06-10T00:33:56.053Z,11.75
2023-06-10T00:36:23.258Z,12.25
2023-06-10T00:38:50.456Z,12.18
2023-06-10T00:41:17.647Z,11.95
2023-06-10T00:43:45.331Z,11.68
2023-06-10T00:46:14.492Z,11.98
2023-06-10T00:48:42.685Z,12.18
2023-06-10T00:51:10.213Z,12.50
2023-06-10T00:53:41.421Z,11.77
2023-06-10T00:56:08.898Z,12.68
2023-06-10T00:58:36.973Z,12.68
2023-06-10T01:01:05.200Z,12.73
2023-06-10T01:03:33.625Z,12.13
2023-06-10T01:06:06.843Z,12.52
2023-06-10T01:08:43.013Z,11.80
2023-06-10T01:11:13.454Z,12.43
2023-06-10T01:13:41.838Z,13.05
2023-06-10T01:16:09.155Z,12.57
2023-06-10T01:18:36.462Z,13.18
2023-06-10T01:21:04.665Z,12.98
2023-06-10T01:23:32.088Z,13.02
2023-06-10T01:26:02.259Z,13.20
2023-06-10T01:28:38.122Z,13.55
2023-06-10T01:31:24.848Z,13.15
2023-06-10T01:33:54.774Z,14.32
2023-06-10T01:36:23.122Z,14.98
2023-06-10T01:38:51.703Z,14.00
2023-06-10T01:41:19.456Z,15.30
2023-06-10T01:43:47.111Z,14.13
2023-06-10T01:46:14.624Z,14.25
2023-06-10T01:48:42.947Z,13.50
2023-06-10T01:51:10.404Z,14.13
2023-06-10T01:53:37.613Z,14.85
2023-06-10T01:56:04.790Z,14.73
2023-06-10T01:58:31.956Z,15.40
2023-06-10T02:00:59.283Z,14.85
2023-06-10T02:03:26.628Z,14.35
2023-06-10T02:05:53.920Z,15.70
2023-06-10T02:08:21.149Z,16.95
2023-06-10T02:10:48.630Z,15.85
2023-06-10T02:13:15.869Z,15.75
2023-06-10T02:15:43.039Z,15.57
2023-06-10T02:18:11.339Z,14.95
2023-06-10T02:20:38.515Z,14.90
2023-06-10T02:23:08.017Z,15.65
2023-06-10T02:25:35.237Z,15.20
2023-06-10T02:28:04.498Z,15.50
2023-06-10T02:30:31.744Z,16.80
2023-06-10T02:33:00.403Z,15.63
2023-06-10T02:35:27.773Z,18.15
2023-06-10T02:37:54.988Z,17.02
2023-06-10T02:40:22.279Z,17.45
2023-06-10T02:42:49.461Z,16.33
2023-06-10T02:45:17.675Z,17.23
2023-06-10T02:47:44.937Z,16.90
2023-06-10T02:50:12.275Z,17.80
2023-06-10T02:52:39.583Z,18.23
2023-06-10T02:55:07.791Z,18.02
2023-06-10T02:57:35.313Z,19.17
2023-06-10T03:00:03.756Z,17.23
2023-06-10T03:02:32.759Z,16.85
2023-06-10T03:05:00.369Z,17.75
2023-06-10T03:07:27.527Z,16.88
2023-06-10T03:09:54.734Z,17.48
2023-06-10T03:12:21.903Z,16.27
2023-06-10T03:14:49.151Z,17.42
2023-06-10T03:17:16.349Z,16.80
2023-06-10T03:19:43.537Z,18.15
2023-06-10T03:22:11.194Z,17.52
2023-06-10T03:24:41.501Z,17.02
2023-06-10T03:27:09.579Z,18.05
2023-06-10T03:29:37.280Z,16.98
2023-06-10T03:32:04.639Z,16.50
2023-06-10T03:34:31.934Z,16.35
2023-06-10T03:36:59.324Z,16.92
2023-06-10T03:39:30.089Z,16.35
2023-06-10T03:41:58.525Z,15.93
2023-06-10T03:44:29.051Z,17.17
2023-06-10T03:46:57.557Z,17.67
2023-06-10T03:49:26.824Z,17.00
2023-06-10T03:51:54.032Z,16.98
2023-06-10T03:54:21.204Z,17.95
2023-06-10T03:56:49.369Z,17.02
2023-06-10T03:59:16.580Z,17.90
2023-06-10T04:01:44.785Z,17.40
2023-06-10T04:04:14.235Z,17.35
2023-06-10T04:06:42.326Z,16.92
2023-06-10T04:09:10.913Z,18.42
2023-06-10T04:11:38.215Z,17.08
2023-06-10T04:14:05.500Z,17.85
2023-06-10T04:16:32.766Z,16.85
2023-06-10T04:19:01.613Z,16.42
2023-06-10T04:21:28.941Z,18.85
2023-06-10T04:23:56.205Z,17.98
2023-06-10T04:26:23.674Z,16.27
2023-06-10T04:28:50.993Z,15.63
2023-06-10T04:31:18.356Z,15.73
2023-06-10T04:33:45.755Z,14.48
2023-06-10T04:36:12.913Z,14.18
2023-06-10T04:38:41.095Z,13.50
2023-06-10T04:41:08.294Z,13.90
2023-06-10T04:43:35.477Z,13.50
2023-06-10T04:46:03.000Z,13.00
2023-06-10T04:48:30.778Z,12.15
2023-06-10T04:50:57.941Z,13.07
2023-06-10T04:53:25.108Z,12.50
2023-06-10T04:55:52.359Z,12.82
2023-06-10T04:58:19.596Z,11.88
2023-06-10T05:00:46.906Z,12.35
2023-06-10T05:03:14.243Z,11.40
2023-06-10T05:05:41.580Z,11.57
2023-06-10T05:08:09.264Z,10.07
2023-06-10T05:10:36.465Z,10.27
2023-06-10T05:13:04.262Z,9.90
2023-06-10T05:15:32.039Z,8.90
2023-06-10T05:17:59.777Z,9.10
2023-06-10T05:20:27.935Z,9.00
2023-06-10T05:22:55.119Z,8.60
2023-06-10T05:25:22.422Z,8.10
2023-06-10T05:27:49.647Z,8.32
2023-06-10T05:30:19.758Z,8.90
2023-06-10T05:32:47.048Z,9.00
2023-06-10T05:35:14.276Z,8.43
2023-06-10T05:37:41.497Z,8.95
2023-06-10T05:40:09.061Z,8.35
2023-06-10T05:42:36.447Z,7.68
2023-06-10T05:45:04.384Z,8.25
2023-06-10T05:47:31.682Z,8.05
2023-06-10T05:49:58.869Z,8.25
2023-06-10T05:52:26.051Z,7.93
2023-06-10T05:54:53.400Z,8.43
2023-06-10T05:57:21.091Z,8.18
2023-06-10T05:59:48.334Z,8.45
2023-06-10T06:02:15.608Z,8.15
2023-06-10T06:04:42.930Z,7.57
2023-06-10T06:07:10.364Z,6.97
2023-06-10T06:09:37.555Z,7.28
2023-06-10T06:12:04.897Z,7.35
2023-06-10T06:14:33.440Z,6.82
2023-06-10T06:17:00.669Z,5.88
2023-06-10T06:19:27.817Z,6.35
2023-06-10T06:21:55.092Z,6.63
2023-06-10T06:24:22.451Z,5.55
2023-06-10T06:26:49.833Z,5.75
2023-06-10T06:29:17.130Z,5.60
2023-06-10T06:31:44.348Z,5.80
2023-06-10T06:34:13.697Z,5.78
2023-06-10T06:36:42.332Z,6.45
2023-06-10T06:39:09.699Z,5.97
2023-06-10T06:41:36.986Z,5.95
2023-06-10T06:44:04.282Z,6.18
2023-06-10T06:46:31.490Z,5.50
2023-06-10T06:48:58.815Z,6.07
2023-06-10T06:51:26.141Z,6.60
2023-06-10T06:53:55.797Z,5.50
2023-06-10T06:56:22.974Z,5.40
2023-06-10T06:58:50.152Z,6.00
2023-06-10T07:01:17.401Z,5.90
2023-06-10T07:03:44.757Z,5.20
2023-06-10T07:06:12.153Z,5.88
2023-06-10T07:08:39.456Z,5.75
2023-06-10T07:11:06.724Z,5.28
2023-06-10T07:13:34.019Z,4.95
2023-06-10T07:16:01.212Z,5.00
2023-06-10T07:18:28.508Z,4.72
2023-06-10T07:20:55.694Z,5.40
2023-06-10T07:23:24.958Z,4.80
2023-06-10T07:25:52.299Z,5.20
2023-06-10T07:28:19.557Z,5.60
2023-06-10T07:30:46.755Z,4.95
2023-06-10T07:33:13.987Z,5.10
2023-06-10T07:35:41.292Z,5.10
2023-06-10T07:38:08.434Z,5.50
2023-06-10T07:40:38.863Z,4.88
2023-06-10T07:43:06.138Z,4.97
2023-06-10T07:45:33.418Z,4.72
2023-06-10T07:48:00.840Z,4.63
2023-06-10T07:50:28.242Z,4.60
2023-06-10T07:52:55.450Z,4.45
2023-06-10T07:55:22.706Z,4.93
2023-06-10T07:57:49.882Z,4.80
2023-06-10T08:00:17.315Z,4.38
2023-06-10T08:02:44.692Z,4.18
2023-06-10T08:05:12.667Z,5.10
2023-06-10T08:07:41.978Z,4.50
2023-06-10T08:10:09.438Z,4.70
2023-06-10T08:12:37.525Z,4.10
2023-06-10T08:15:05.592Z,3.80
2023-06-10T08:17:32.890Z,4.70
2023-06-10T08:20:00.223Z,3.92
2023-06-10T08:22:27.465Z,3.45
2023-06-10T08:24:54.672Z,4.05
2023-06-10T08:27:21.862Z,3.65
2023-06-10T08:29:49.130Z,3.92
2023-06-10T08:32:16.629Z,3.53
2023-06-10T08:34:43.884Z,3.60
2023-06-10T08:37:11.099Z,3.75
2023-06-10T08:39:38.349Z,3.63
2023-06-10T08:42:08.855Z,3.30
2023-06-10T08:44:39.741Z,3.83
2023-06-10T08:47:16.151Z,3.08
2023-06-10T08:49:45.932Z,3.35
2023-06-10T08:52:16.658Z,3.40
2023-06-10T08:54:45.175Z,3.13
2023-06-10T08:57:12.372Z,3.55
2023-06-10T08:59:40.418Z,3.20
2023-06-10T09:02:08.734Z,2.97
2023-06-10T09:04:36.694Z,2.97
2023-06-10T09:07:04.414Z,3.55
2023-06-10T09:09:32.216Z,3.38
2023-06-10T09:11:59.813Z,3.28
2023-06-10T09:14:27.300Z,3.30
2023-06-10T09:16:58.005Z,3.33
2023-06-10T09:19:26.019Z,3.55
2023-06-10T09:21:53.326Z,3.28
2023-06-10T09:24:20.656Z,3.45
2023-06-10T09:26:47.922Z,3.75
2023-06-10T09:29:15.170Z,2.90
2023-06-10T09:31:42.692Z,3.25
2023-06-10T09:34:14.231Z,3.30
2023-06-10T09:36:41.786Z,3.13
2023-06-10T09:39:19.203Z,3.47
2023-06-10T09:41:47.426Z,3.35
2023-06-10T09:44:15.511Z,2.95
2023-06-10T09:46:43.207Z,2.85
2023-06-10T09:49:10.517Z,3.10
2023-06-10T09:51:37.852Z,3.00
2023-06-10T09:54:05.592Z,3.08
2023-06-10T09:56:38.990Z,2.90
2023-06-10T09:59:07.479Z,2.90
2023-06-10T10:01:35.050Z,2.80
2023-06-10T10:04:02.484Z,2.95
2023-06-10T10:06:31.019Z,2.53
2023-06-10T10:08:58.691Z,2.90
2023-06-10T10:11:31.074Z,2.88
2023-06-10T10:13:58.744Z,3.10
2023-06-10T10:16:32.026Z,2.75
2023-06-10T10:19:07.149Z,2.95
2023-06-10T10:21:37.169Z,3.15
2023-06-10T10:24:10.532Z,2.92
2023-06-10T10:26:39.599Z,3.20
2023-06-10T10:29:13.247Z,3.72
2023-06-10T10:31:41.283Z,3.78
2023-06-10T10:34:09.505Z,3.47
2023-06-10T10:36:38.233Z,3.60
2023-06-10T10:39:06.196Z,3.47
2023-06-10T10:41:36.589Z,3.53
2023-06-10T10:44:06.825Z,3.20
2023-06-10T10:46:43.856Z,3.80
2023-06-10T10:49:12.396Z,3.75
2023-06-10T10:51:39.664Z,3.90
2023-06-10T10:54:14.222Z,3.83
2023-06-10T10:56:41.599Z,3.30
2023-06-10T10:59:10.302Z,3.67
2023-06-10T11:01:47.415Z,3.47
2023-06-10T11:04:15.245Z,3.85
2023-06-10T11:06:53.655Z,4.38
2023-06-10T11:09:29.329Z,3.95
2023-06-10T11:12:00.286Z,3.67
2023-06-10T11:14:33.976Z,3.80
2023-06-10T11:17:01.912Z,3.70
2023-06-10T11:19:36.941Z,3.90
2023-06-10T11:22:05.629Z,4.20
2023-06-10T11:24:33.031Z,4.50
2023-06-10T11:27:18.993Z,4.47
2023-06-10T11:30:04.721Z,4.13
2023-06-10T11:32:35.715Z,3.97
2023-06-10T11:35:07.070Z,4.75
2023-06-10T11:37:34.506Z,4.22
2023-06-10T11:40:01.859Z,4.00
2023-06-10T11:42:29.171Z,3.92
2023-06-10T11:44:56.413Z,4.22
2023-06-10T11:47:24.248Z,4.78
2023-06-10T11:50:00.691Z,4.40
2023-06-10T11:52:29.038Z,4.57
2023-06-10T11:54:56.941Z,4.80
2023-06-10T11:57:24.369Z,4.82
2023-06-10T11:59:51.771Z,4.95
2023-06-10T12:02:20.355Z,5.65
2023-06-10T12:04:47.797Z,4.90
2023-06-10T12:07:23.350Z,5.53
2023-06-10T12:10:08.946Z,5.28
2023-06-10T12:12:46.661Z,5.70
2023-06-10T12:15:25.177Z,5.43
2023-06-10T12:17:52.582Z,5.47
2023-06-10T12:20:28.683Z,5.10
2023-06-10T12:22:55.855Z,5.32
2023-06-10T12:25:27.893Z,5.03
2023-06-10T12:27:56.226Z,4.88
2023-06-10T12:30:25.220Z,4.93
2023-06-10T12:32:59.387Z,4.95
2023-06-10T12:35:29.785Z,4.50
2023-06-10T12:38:02.257Z,4.40
2023-06-10T12:40:30.299Z,4.65
2023-06-10T12:42:57.853Z,4.07
2023-06-10T12:45:32.192Z,3.88
2023-06-10T12:48:13.581Z,4.30
2023-06-10T12:50:41.783Z,4.40
2023-06-10T12:53:09.273Z,4.05
2023-06-10T12:55:36.698Z,3.97
2023-06-10T12:58:04.377Z,4.05
2023-06-10T13:00:32.230Z,3.97
2023-06-10T13:03:02.168Z,4.03
2023-06-10T13:05:29.819Z,3.42
2023-06-10T13:07:57.150Z,3.70
2023-06-10T13:10:25.992Z,3.83
2023-06-10T13:12:55.844Z,3.97
2023-06-10T13:15:23.193Z,3.60
2023-06-10T13:17:51.816Z,3.30
2023-06-10T13:20:19.509Z,3.30
2023-06-10T13:22:46.855Z,3.85
2023-06-10T13:25:14.614Z,3.38
2023-06-10T13:27:43.429Z,3.35
2023-06-10T13:30:12.210Z,3.30
2023-06-10T13:32:39.875Z,3.63
2023-06-10T13:35:11.458Z,2.97
2023-06-10T13:37:38.888Z,3.00
2023-06-10T13:40:06.652Z,3.83
2023-06-10T13:42:34.311Z,3.42
2023-06-10T13:45:04.238Z,3.80
2023-06-10T13:47:31.499Z,3.15
2023-06-10T13:49:58.797Z,3.10
2023-06-10T13:52:26.089Z,3.20
2023-06-10T13:54:53.273Z,3.40
2023-06-10T13:57:23.435Z,3.03
2023-06-10T13:59:50.650Z,2.70
2023-06-10T14:02:18.054Z,3.20
2023-06-10T14:04:45.323Z,2.85
2023-06-10T14:07:12.475Z,3.33
2023-06-10T14:09:39.868Z,3.08
2023-06-10T14:12:07.457Z,3.17
2023-06-10T14:14:34.646Z,2.90
2023-06-10T14:17:01.969Z,3.17
2023-06-10T14:19:29.189Z,3.08
2023-06-10T14:21:56.651Z,2.80
2023-06-10T14:24:23.990Z,2.85
2023-06-10T14:26:51.330Z,2.97
2023-06-10T14:29:20.279Z,2.63
2023-06-10T14:31:47.473Z,2.47
2023-06-10T14:34:14.761Z,2.70
2023-06-10T14:36:42.071Z,2.40
2023-06-10T14:39:09.237Z,2.97
2023-06-10T14:41:36.508Z,2.75
2023-06-10T14:44:03.778Z,2.60
2023-06-10T14:46:31.171Z,2.72
2023-06-10T14:49:00.368Z,2.90
2023-06-10T14:51:27.644Z,2.40
2023-06-10T14:53:54.873Z,2.55
2023-06-10T14:56:22.018Z,2.70
2023-06-10T14:58:49.198Z,2.90
2023-06-10T15:01:16.542Z,2.58
2023-06-10T15:03:43.847Z,2.67
2023-06-10T15:06:11.237Z,2.60
2023-06-10T15:08:38.496Z,2.50
2023-06-10T15:11:05.791Z,2.60
2023-06-10T15:13:33.099Z,2.85
2023-06-10T15:16:03.352Z,2.40
2023-06-10T15:18:31.190Z,2.50
2023-06-10T15:20:58.511Z,2.80
2023-06-10T15:23:25.810Z,2.45
2023-06-10T15:25:53.084Z,2.80
2023-06-10T15:28:20.433Z,2.60
2023-06-10T15:30:47.640Z,2.50
2023-06-10T15:33:14.888Z,2.35
2023-06-10T15:35:42.256Z,2.47
2023-06-10T15:38:09.435Z,3.03
2023-06-10T15:40:36.915Z,2.58
2023-06-10T15:43:04.394Z,2.40
2023-06-10T15:45:35.842Z,2.50
2023-06-10T15:48:03.278Z,2.30
2023-06-10T15:50:30.827Z,2.70
2023-06-10T15:52:58.105Z,2.38
2023-06-10T15:55:26.977Z,2.90
2023-06-10T15:57:54.283Z,3.00
2023-06-10T16:00:21.548Z,2.70
2023-06-10T16:02:48.904Z,2.80
2023-06-10T16:05:16.152Z,2.90
2023-06-10T16:07:43.422Z,3.05
2023-06-10T16:10:10.854Z,2.80
2023-06-10T16:12:38.032Z,2.90
2023-06-10T16:15:05.412Z,3.22
2023-06-10T16:17:33.541Z,3.38
2023-06-10T16:20:00.992Z,2.80
2023-06-10T16:22:28.546Z,2.80
2023-06-10T16:24:55.798Z,2.90
2023-06-10T16:27:24.347Z,2.80
2023-06-10T16:29:53.583Z,3.35
2023-06-10T16:32:21.028Z,2.90
2023-06-10T16:34:48.320Z,2.78
2023-06-10T16:37:15.668Z,2.60
2023-06-10T16:39:42.826Z,2.97
2023-06-10T16:42:10.153Z,2.85
2023-06-10T16:44:37.384Z,3.10
2023-06-10T16:47:04.640Z,2.80
2023-06-10T16:49:31.928Z,3.03
2023-06-10T16:51:59.078Z,3.00
2023-06-10T16:54:26.285Z,3.15
2023-06-10T16:56:53.457Z,2.95
2023-06-10T16:59:20.657Z,3.08
2023-06-10T17:01:47.886Z,2.90
2023-06-10T17:04:15.288Z,3.20
2023-06-10T17:06:42.470Z,2.97
2023-06-10T17:09:09.768Z,3.22
2023-06-10T17:11:38.300Z,3.63
2023-06-10T17:14:05.920Z,3.25
2023-06-10T17:16:33.308Z,3.03
2023-06-10T17:19:00.563Z,2.90
2023-06-10T17:21:28.263Z,3.10
2023-06-10T17:23:55.644Z,2.83
2023-06-10T17:26:23.178Z,2.78
2023-06-10T17:28:50.336Z,3.13
2023-06-10T17:31:17.577Z,3.17
2023-06-10T17:33:44.820Z,3.30
2023-06-10T17:36:12.090Z,3.08
2023-06-10T17:38:39.393Z,3.10
2023-06-10T17:41:07.714Z,3.78
2023-06-10T17:43:34.900Z,3.00
2023-06-10T17:46:03.053Z,3.58
2023-06-10T17:48:30.268Z,3.58
2023-06-10T17:50:57.474Z,2.97
2023-06-10T17:53:24.667Z,3.33
2023-06-10T17:55:52.025Z,3.10
2023-06-10T17:58:19.187Z,3.00
2023-06-10T18:00:46.432Z,3.50
2023-06-10T18:03:13.863Z,3.00
2023-06-10T18:05:41.135Z,3.05
2023-06-10T18:08:08.363Z,3.05
2023-06-10T18:10:35.535Z,3.00
2023-06-10T18:13:02.873Z,2.97
2023-06-10T18:15:31.039Z,2.97
2023-06-10T18:17:58.349Z,3.13
2023-06-10T18:20:26.257Z,2.92
2023-06-10T18:22:53.520Z,2.85
2023-06-10T18:25:21.235Z,3.05
2023-06-10T18:27:48.411Z,3.53
2023-06-10T18:30:15.858Z,2.97
2023-06-10T18:32:43.090Z,2.80
2023-06-10T18:35:11.268Z,3.20
2023-06-10T18:37:38.673Z,3.13
2023-06-10T18:40:09.113Z,3.20
2023-06-10T18:42:37.184Z,3.22
2023-06-10T18:45:04.504Z,3.45
2023-06-10T18:47:40.774Z,2.85
2023-06-10T18:50:12.113Z,3.60
2023-06-10T18:52:39.378Z,2.88
2023-06-10T18:55:06.901Z,3.00
2023-06-10T18:57:34.121Z,3.42
2023-06-10T19:00:01.704Z,3.60
2023-06-10T19:02:29.753Z,3.28
2023-06-10T19:04:57.104Z,3.33
2023-06-10T19:07:24.291Z,3.22
2023-06-10T19:09:51.477Z,2.97
2023-06-10T19:12:18.700Z,3.28
2023-06-10T19:14:46.311Z,3.15
2023-06-10T19:17:13.600Z,3.20
2023-06-10T19:19:40.884Z,3.17
2023-06-10T19:22:08.160Z,3.22
2023-06-10T19:24:35.415Z,3.70
2023-06-10T19:27:02.640Z,3.30
2023-06-10T19:29:29.819Z,3.17
2023-06-10T19:31:57.155Z,3.40
2023-06-10T19:34:24.455Z,3.25
2023-06-10T19:36:51.645Z,3.95
2023-06-10T19:39:18.864Z,3.70
2023-06-10T19:41:46.558Z,3.60
2023-06-10T19:44:13.784Z,3.45
2023-06-10T19:46:42.136Z,3.53
2023-06-10T19:49:09.510Z,3.50
2023-06-10T19:51:37.186Z,3.65
2023-06-10T19:54:04.375Z,3.55
2023-06-10T19:56:31.545Z,3.10
2023-06-10T19:58:58.757Z,3.58
2023-06-10T20:01:26.040Z,3.53
2023-06-10T20:03:53.364Z,3.80
2023-06-10T20:06:20.568Z,3.20
2023-06-10T20:08:47.765Z,3.55
2023-06-10T20:11:14.987Z,3.65
2023-06-10T20:13:42.146Z,3.42
2023-06-10T20:16:09.337Z,3.70
2023-06-10T20:18:37.352Z,3.65
2023-06-10T20:21:04.589Z,3.50
2023-06-10T20:23:31.828Z,3.65
2023-06-10T20:25:59.142Z,3.60
2023-06-10T20:28:26.653Z,3.67
2023-06-10T20:30:53.921Z,3.85
2023-06-10T20:33:21.295Z,3.97
2023-06-10T20:35:48.538Z,3.67
2023-06-10T20:38:15.769Z,3.95
2023-06-10T20:40:42.983Z,4.13
2023-06-10T20:43:11.926Z,9.82
2023-06-10T20:45:39.273Z,4.10
2023-06-10T20:48:06.678Z,4.07
2023-06-10T20:50:33.980Z,3.45
2023-06-10T20:53:01.344Z,3.70
2023-06-10T20:55:28.677Z,3.70
2023-06-10T20:57:59.421Z,3.83
2023-06-10T21:00:27.289Z,3.55
2023-06-10T21:02:54.603Z,3.88
2023-06-10T21:05:21.879Z,4.05
2023-06-10T21:07:49.105Z,4.22
2023-06-10T21:10:16.594Z,4.32
2023-06-10T21:12:43.825Z,4.22
2023-06-10T21:15:11.442Z,4.47
2023-06-10T21:17:39.084Z,4.63
2023-06-10T21:20:06.693Z,4.03
2023-06-10T21:22:33.994Z,4.72
2023-06-10T21:25:01.176Z,4.72
2023-06-10T21:27:28.476Z,4.25
2023-06-10T21:29:55.704Z,5.10
2023-06-10T21:32:23.583Z,4.63
2023-06-10T21:34:50.757Z,4.93
2023-06-10T21:37:17.972Z,4.43
2023-06-10T21:39:45.212Z,5.00
2023-06-10T21:42:12.390Z,5.47
2023-06-10T21:44:40.437Z,5.15
2023-06-10T21:47:07.850Z,5.10
2023-06-10T21:49:35.118Z,4.97
2023-06-10T21:52:02.445Z,5.30
2023-06-10T21:54:29.675Z,5.03
2023-06-10T21:56:56.903Z,5.43
2023-06-10T21:59:24.489Z,5.68
2023-06-10T22:01:51.769Z,5.72
2023-06-10T22:04:18.940Z,5.97
2023-06-10T22:06:47.400Z,5.40
2023-06-10T22:09:14.659Z,5.57
2023-06-10T22:11:43.075Z,5.93
2023-06-10T22:14:11.643Z,6.15
2023-06-10T22:16:38.942Z,6.15
2023-06-10T22:19:06.153Z,5.53
2023-06-10T22:21:33.436Z,6.00
2023-06-10T22:24:00.904Z,6.03
2023-06-10T22:26:40.024Z,5.88
2023-06-10T22:29:18.046Z,6.35
2023-06-10T22:31:47.001Z,6.07
2023-06-10T22:34:14.267Z,6.15
2023-06-10T22:36:41.561Z,6.32
2023-06-10T22:39:12.974Z,6.45
2023-06-10T22:41:41.031Z,6.20
2023-06-10T22:44:08.329Z,6.93
2023-06-10T22:46:35.654Z,6.45
2023-06-10T22:49:02.963Z,6.45
2023-06-10T22:51:30.314Z,6.63
2023-06-10T22:53:57.532Z,7.30
2023-06-10T22:56:24.901Z,6.72
2023-06-10T22:58:52.077Z,6.80
2023-06-10T23:01:19.515Z,6.40
2023-06-10T23:03:47.297Z,7.00
2023-06-10T23:06:16.030Z,7.60
2023-06-10T23:08:43.231Z,6.82
2023-06-10T23:11:10.538Z,7.15
2023-06-10T23:13:37.765Z,8.07
2023-06-10T23:16:05.086Z,7.78
2023-06-10T23:18:33.756Z,7.80
2023-06-10T23:21:00.939Z,7.57
2023-06-10T23:23:34.664Z,7.90
2023-06-10T23:26:02.527Z,7.60
2023-06-10T23:28:29.762Z,8.02
2023-06-10T23:30:57.346Z,7.87
2023-06-10T23:33:25.279Z,7.78
2023-06-10T23:35:52.632Z,8.20
2023-06-10T23:38:19.836Z,8.40
2023-06-10T23:40:47.053Z,8.25
2023-06-10T23:43:14.506Z,8.07
2023-06-10T23:45:44.437Z,8.27
2023-06-10T23:48:11.805Z,8.57
2023-06-10T23:50:40.525Z,8.73
2023-06-10T23:53:07.847Z,8.38
2023-06-10T23:55:35.829Z,8.38
2023-06-10T23:58:03.631Z,9.10
